| time (UTC) | temp C | wind direction | speed KPH | gust KPH | rain 1hr cm | rain 24hr cm | rain mn cm | humidity % | barometer mb |
| 20260507160341 | 28 | 347 | 0.0 | 1.6 | 0.00 | 0.00 | 0.00 | 65 | 1013.0 |
| 20260507160039 | 28 | 347 | 0.0 | 1.6 | 0.00 | 0.00 | 0.00 | 65 | 1013.0 |
| 20260507155733 | 28 | 347 | 0.0 | 1.6 | 0.00 | 0.00 | 0.00 | 65 | 1013.0 |
| 20260507155424 | 28 | 347 | 0.0 | 1.6 | 0.00 | 0.00 | 0.00 | 65 | 1013.0 |
| 20260507155117 | 29 | 347 | 0.0 | 1.6 | 0.00 | 0.00 | 0.00 | 65 | 1013.0 |
| 20260507154811 | 29 | 347 | 0.0 | 1.6 | 0.00 | 0.00 | 0.00 | 65 | 1013.0 |
| 20260507154501 | 29 | 347 | 0.0 | 1.6 | 0.00 | 0.00 | 0.00 | 65 | 1013.0 |
| 20260507154155 | 30 | 347 | 0.0 | 1.6 | 0.00 | 0.00 | 0.00 | 65 | 1013.0 |
| 20260507153848 | 27 | 347 | 0.0 | 1.6 | 0.00 | 0.00 | 0.00 | 69 | 1013.0 |
| 20260507153542 | 27 | 313 | 1.6 | 1.6 | 0.00 | 0.00 | 0.00 | 69 | 1014.0 |
| 20260507153235 | 27 | 347 | 0.0 | 1.6 | 0.00 | 0.00 | 0.00 | 69 | 1013.0 |
| 20260507152929 | 27 | 313 | 1.6 | 1.6 | 0.00 | 0.00 | 0.00 | 69 | 1014.0 |
| 20260507152627 | 27 | 313 | 1.6 | 1.6 | 0.00 | 0.00 | 0.00 | 69 | 1014.0 |
| 20260507152318 | 27 | 313 | 1.6 | 1.6 | 0.00 | 0.00 | 0.00 | 69 | 1014.0 |
| 20260507152017 | 28 | 313 | 1.6 | 1.6 | 0.00 | 0.00 | 0.00 | 69 | 1014.0 |
| 20260507151710 | 28 | 313 | 1.6 | 1.6 | 0.00 | 0.00 | 0.00 | 69 | 1014.0 |
| 20260507151403 | 28 | 313 | 1.6 | 1.6 | 0.00 | 0.00 | 0.00 | 69 | 1014.0 |
| 20260507151102 | 28 | 313 | 1.6 | 1.6 | 0.00 | 0.00 | 0.00 | 69 | 1014.0 |
| 20260507150756 | 28 | 313 | 1.6 | 1.6 | 0.00 | 0.00 | 0.00 | 69 | 1014.0 |
| 20260507150449 | 28 | 313 | 1.6 | 1.6 | 0.00 | 0.00 | 0.00 | 69 | 1014.0 |
| 20260507150148 | 29 | 313 | 1.6 | 1.6 | 0.00 | 0.00 | 0.00 | 69 | 1014.0 |
| 20260507145841 | 28 | 313 | 1.6 | 1.6 | 0.00 | 0.00 | 0.00 | 69 | 1014.0 |
| 20260507145535 | 28 | 313 | 1.6 | 1.6 | 0.00 | 0.00 | 0.00 | 69 | 1014.0 |
| 20260507145225 | 29 | 313 | 1.6 | 1.6 | 0.00 | 0.00 | 0.00 | 69 | 1014.0 |
| 20260507144919 | 30 | 313 | 1.6 | 1.6 | 0.00 | 0.00 | 0.00 | 69 | 1014.0 |
| 20260507144612 | 28 | 313 | 1.6 | 1.6 | 0.00 | 0.00 | 0.00 | 69 | 1014.0 |
| 20260507144305 | 29 | 313 | 1.6 | 1.6 | 0.00 | 0.00 | 0.00 | 69 | 1014.0 |
| 20260507143954 | 30 | 313 | 1.6 | 1.6 | 0.00 | 0.00 | 0.00 | 69 | 1014.0 |
| 20260507143649 | 26 | 313 | 1.6 | 1.6 | 0.00 | 0.00 | 0.00 | 79 | 1014.0 |
| 20260507143343 | 26 | 297 | 1.6 | 1.6 | 0.00 | 0.00 | 0.00 | 79 | 1014.0 |
| 20260507143041 | 26 | 313 | 1.6 | 1.6 | 0.00 | 0.00 | 0.00 | 79 | 1014.0 |
| 20260507142735 | 26 | 297 | 1.6 | 1.6 | 0.00 | 0.00 | 0.00 | 79 | 1014.0 |
| 20260507142428 | 26 | 297 | 1.6 | 1.6 | 0.00 | 0.00 | 0.00 | 79 | 1014.0 |
| 20260507142121 | 27 | 297 | 1.6 | 1.6 | 0.00 | 0.00 | 0.00 | 79 | 1014.0 |
| 20260507141815 | 26 | 297 | 1.6 | 1.6 | 0.00 | 0.00 | 0.00 | 79 | 1014.0 |
| 20260507141508 | 27 | 297 | 1.6 | 1.6 | 0.00 | 0.00 | 0.00 | 79 | 1014.0 |
| 20260507141202 | 27 | 297 | 1.6 | 1.6 | 0.00 | 0.00 | 0.00 | 79 | 1014.0 |
| 20260507140855 | 27 | 297 | 1.6 | 1.6 | 0.00 | 0.00 | 0.00 | 79 | 1014.0 |
| 20260507140549 | 27 | 297 | 1.6 | 1.6 | 0.00 | 0.00 | 0.00 | 79 | 1014.0 |
| 20260507140237 | 27 | 297 | 1.6 | 1.6 | 0.00 | 0.00 | 0.00 | 79 | 1014.0 |
| 20260507135924 | 25 | 297 | 1.6 | 1.6 | 0.00 | 0.00 | 0.00 | 80 | 1014.0 |
| 20260507135622 | 25 | 297 | 1.6 | 1.6 | 0.00 | 0.00 | 0.00 | 80 | 1014.0 |
| 20260507135316 | 25 | 297 | 1.6 | 1.6 | 0.00 | 0.00 | 0.00 | 80 | 1014.0 |
| 20260507135003 | 25 | 297 | 1.6 | 1.6 | 0.00 | 0.00 | 0.00 | 80 | 1014.0 |
| 20260507134652 | 26 | 297 | 1.6 | 1.6 | 0.00 | 0.00 | 0.00 | 80 | 1014.0 |
| 20260507134345 | 26 | 297 | 1.6 | 1.6 | 0.00 | 0.00 | 0.00 | 80 | 1014.0 |
| 20260507134042 | 26 | 297 | 1.6 | 1.6 | 0.00 | 0.00 | 0.00 | 80 | 1014.0 |
| 20260507133735 | 26 | 297 | 1.6 | 1.6 | 0.00 | 0.00 | 0.00 | 80 | 1014.0 |
| 20260507133434 | 27 | 297 | 1.6 | 1.6 | 0.00 | 0.00 | 0.00 | 80 | 1014.0 |
| 20260507133133 | 23 | 266 | 0.0 | 1.6 | 0.00 | 0.00 | 0.00 | 92 | 1014.0 |
| 20260507132821 | 23 | 266 | 0.0 | 1.6 | 0.00 | 0.00 | 0.00 | 92 | 1014.0 |
| 20260507132520 | 23 | 266 | 0.0 | 1.6 | 0.00 | 0.00 | 0.00 | 92 | 1014.0 |
| 20260507132208 | 23 | 266 | 0.0 | 1.6 | 0.00 | 0.00 | 0.00 | 92 | 1014.0 |
| 20260507131902 | 24 | 266 | 0.0 | 1.6 | 0.00 | 0.00 | 0.00 | 92 | 1014.0 |
| 20260507131545 | 23 | 266 | 0.0 | 1.6 | 0.00 | 0.00 | 0.00 | 92 | 1014.0 |
| 20260507131238 | 23 | 266 | 0.0 | 1.6 | 0.00 | 0.00 | 0.00 | 92 | 1014.0 |
| 20260507130937 | 24 | 266 | 0.0 | 1.6 | 0.00 | 0.00 | 0.00 | 92 | 1014.0 |
| 20260507130625 | 22 | 266 | 0.0 | 1.6 | 0.00 | 0.00 | 0.00 | 93 | 1014.0 |
| 20260507130319 | 22 | 266 | 0.0 | 1.6 | 0.00 | 0.00 | 0.00 | 93 | 1014.0 |
| 20260507130013 | 22 | 266 | 0.0 | 1.6 | 0.00 | 0.00 | 0.00 | 93 | 1014.0 |
| 20260507125711 | 23 | 266 | 0.0 | 1.6 | 0.00 | 0.00 | 0.00 | 93 | 1014.0 |
| 20260507125400 | 23 | 266 | 0.0 | 1.6 | 0.00 | 0.00 | 0.00 | 93 | 1014.0 |
| 20260507125053 | 23 | 266 | 0.0 | 1.6 | 0.00 | 0.00 | 0.00 | 93 | 1014.0 |
| 20260507124747 | 23 | 266 | 0.0 | 1.6 | 0.00 | 0.00 | 0.00 | 93 | 1014.0 |
| 20260507124440 | 23 | 266 | 0.0 | 1.6 | 0.00 | 0.00 | 0.00 | 93 | 1014.0 |
| 20260507124139 | 23 | 266 | 0.0 | 1.6 | 0.00 | 0.00 | 0.00 | 93 | 1014.0 |
| 20260507123832 | 24 | 266 | 0.0 | 1.6 | 0.00 | 0.00 | 0.00 | 93 | 1014.0 |
| 20260507123026 | 20 | 230 | 0.0 | 1.6 | 0.00 | 0.00 | 0.00 | 99 | 1013.0 |
| 20260507122720 | 20 | 230 | 0.0 | 1.6 | 0.00 | 0.00 | 0.00 | 99 | 1013.0 |
| 20260507122411 | 20 | 230 | 0.0 | 1.6 | 0.00 | 0.00 | 0.00 | 99 | 1013.0 |
| 20260507122109 | 20 | 230 | 0.0 | 1.6 | 0.00 | 0.00 | 0.00 | 99 | 1013.0 |
| 20260507121151 | 21 | 230 | 0.0 | 1.6 | 0.00 | 0.00 | 0.00 | 99 | 1013.0 |
| 20260507120828 | 21 | 230 | 0.0 | 1.6 | 0.00 | 0.00 | 0.00 | 99 | 1013.0 |
| 20260507120513 | 22 | 267 | 1.6 | 1.6 | 0.00 | 0.00 | 0.00 | 99 | 1013.0 |
| 20260507120207 | 22 | 267 | 1.6 | 1.6 | 0.00 | 0.00 | 0.00 | 99 | 1013.0 |
| 20260507115900 | 22 | 267 | 1.6 | 1.6 | 0.00 | 0.00 | 0.00 | 99 | 1013.0 |
| 20260507115252 | 19 | 267 | 1.6 | 1.6 | 0.00 | 0.00 | 0.00 | 99 | 1013.0 |
| 20260507114644 | 19 | 267 | 1.6 | 1.6 | 0.00 | 0.00 | 0.00 | 99 | 1013.0 |
| 20260507114335 | 20 | 267 | 1.6 | 1.6 | 0.00 | 0.00 | 0.00 | 99 | 1013.0 |
| 20260507114028 | 20 | 267 | 1.6 | 1.6 | 0.00 | 0.00 | 0.00 | 99 | 1013.0 |
| 20260507113717 | 20 | 267 | 1.6 | 1.6 | 0.00 | 0.00 | 0.00 | 99 | 1013.0 |
| 20260507113411 | 20 | 267 | 1.6 | 1.6 | 0.00 | 0.00 | 0.00 | 99 | 1013.0 |
| 20260507113104 | 20 | 267 | 1.6 | 1.6 | 0.00 | 0.00 | 0.00 | 99 | 1013.0 |
| 20260507112753 | 21 | 278 | 0.0 | 0.0 | 0.00 | 0.00 | 0.00 | 99 | 1012.0 |
| 20260507112446 | 21 | 278 | 0.0 | 0.0 | 0.00 | 0.00 | 0.00 | 99 | 1012.0 |
| 20260507112140 | 21 | 278 | 0.0 | 0.0 | 0.00 | 0.00 | 0.00 | 99 | 1012.0 |
| 20260507111835 | 21 | 278 | 0.0 | 0.0 | 0.00 | 0.00 | 0.00 | 99 | 1012.0 |
| 20260507111516 | 21 | 278 | 0.0 | 0.0 | 0.00 | 0.00 | 0.00 | 99 | 1012.0 |
| 20260507111210 | 21 | 278 | 0.0 | 0.0 | 0.00 | 0.00 | 0.00 | 99 | 1012.0 |
| 20260507110903 | 21 | 278 | 0.0 | 0.0 | 0.00 | 0.00 | 0.00 | 99 | 1012.0 |
| 20260507110542 | 18 | 278 | 0.0 | 0.0 | 0.00 | 0.00 | 0.00 | 99 | 1012.0 |
| 20260507110241 | 19 | 278 | 0.0 | 0.0 | 0.00 | 0.00 | 0.00 | 99 | 1012.0 |
| 20260507105940 | 20 | 278 | 0.0 | 0.0 | 0.00 | 0.00 | 0.00 | 99 | 1012.0 |
| 20260507105633 | 18 | 278 | 0.0 | 0.0 | 0.00 | 0.00 | 0.00 | 99 | 1012.0 |
| 20260507105332 | 19 | 278 | 0.0 | 0.0 | 0.00 | 0.00 | 0.00 | 99 | 1012.0 |
| 20260507105030 | 20 | 278 | 0.0 | 0.0 | 0.00 | 0.00 | 0.00 | 99 | 1012.0 |
| 20260507104724 | 20 | 278 | 0.0 | 0.0 | 0.00 | 0.00 | 0.00 | 99 | 1012.0 |
| 20260507104411 | 21 | 278 | 0.0 | 0.0 | 0.00 | 0.00 | 0.00 | 99 | 1012.0 |
| 20260507104105 | 20 | 278 | 0.0 | 0.0 | 0.00 | 0.00 | 0.00 | 99 | 1012.0 |
| 20260507103753 | 21 | 278 | 0.0 | 0.0 | 0.00 | 0.00 | 0.00 | 99 | 1012.0 |
| 20260507103452 | 21 | 278 | 0.0 | 0.0 | 0.00 | 0.00 | 0.00 | 99 | 1012.0 |
| 20260507103145 | 21 | 306 | 0.0 | 1.6 | 0.00 | 0.00 | 0.00 | 99 | 1012.0 |
| 20260507102839 | 21 | 306 | 0.0 | 1.6 | 0.00 | 0.00 | 0.00 | 99 | 1012.0 |
| 20260507102537 | 18 | 306 | 0.0 | 1.6 | 0.00 | 0.00 | 0.00 | 99 | 1012.0 |
| 20260507102233 | 18 | 306 | 0.0 | 1.6 | 0.00 | 0.00 | 0.00 | 99 | 1012.0 |
| 20260507101927 | 18 | 306 | 0.0 | 1.6 | 0.00 | 0.00 | 0.00 | 99 | 1012.0 |
| 20260507101620 | 19 | 306 | 0.0 | 1.6 | 0.00 | 0.00 | 0.00 | 99 | 1012.0 |
| 20260507101309 | 20 | 306 | 0.0 | 1.6 | 0.00 | 0.00 | 0.00 | 99 | 1012.0 |
| 20260507101006 | 20 | 306 | 0.0 | 1.6 | 0.00 | 0.00 | 0.00 | 99 | 1012.0 |
| 20260507100659 | 20 | 306 | 0.0 | 1.6 | 0.00 | 0.00 | 0.00 | 99 | 1012.0 |
| 20260507100358 | 20 | 306 | 0.0 | 1.6 | 0.00 | 0.00 | 0.00 | 99 | 1012.0 |
| 20260507100056 | 21 | 306 | 0.0 | 1.6 | 0.00 | 0.00 | 0.00 | 99 | 1012.0 |
| 20260507095754 | 21 | 306 | 0.0 | 1.6 | 0.00 | 0.00 | 0.00 | 99 | 1012.0 |
| 20260507095450 | 20 | 306 | 0.0 | 1.6 | 0.00 | 0.00 | 0.00 | 99 | 1012.0 |
| 20260507095149 | 21 | 306 | 0.0 | 1.6 | 0.00 | 0.00 | 0.00 | 99 | 1012.0 |
| 20260507094843 | 18 | 306 | 0.0 | 1.6 | 0.00 | 0.00 | 0.00 | 99 | 1012.0 |
| 20260507094542 | 18 | 306 | 0.0 | 1.6 | 0.00 | 0.00 | 0.00 | 99 | 1012.0 |
| 20260507094235 | 18 | 306 | 0.0 | 1.6 | 0.00 | 0.00 | 0.00 | 99 | 1012.0 |
| 20260507093928 | 18 | 306 | 0.0 | 1.6 | 0.00 | 0.00 | 0.00 | 99 | 1012.0 |
| 20260507093620 | 19 | 306 | 0.0 | 1.6 | 0.00 | 0.00 | 0.00 | 99 | 1012.0 |
| 20260507093313 | 19 | 306 | 0.0 | 1.6 | 0.00 | 0.00 | 0.00 | 99 | 1012.0 |
| 20260507093007 | 19 | 306 | 0.0 | 1.6 | 0.00 | 0.00 | 0.00 | 99 | 1012.0 |
| 20260507092700 | 20 | 329 | 0.0 | 0.0 | 0.00 | 0.00 | 0.00 | 99 | 1012.0 |
| 20260507092349 | 20 | 329 | 0.0 | 0.0 | 0.00 | 0.00 | 0.00 | 99 | 1012.0 |
| 20260507092048 | 20 | 329 | 0.0 | 0.0 | 0.00 | 0.00 | 0.00 | 99 | 1012.0 |
| 20260507091736 | 20 | 329 | 0.0 | 0.0 | 0.00 | 0.00 | 0.00 | 99 | 1012.0 |
| 20260507091430 | 21 | 329 | 0.0 | 0.0 | 0.00 | 0.00 | 0.00 | 99 | 1012.0 |
| 20260507091123 | 21 | 329 | 0.0 | 0.0 | 0.00 | 0.00 | 0.00 | 99 | 1012.0 |
| 20260507090822 | 18 | 329 | 0.0 | 0.0 | 0.00 | 0.00 | 0.00 | 99 | 1012.0 |
| 20260507090520 | 21 | 329 | 0.0 | 0.0 | 0.00 | 0.00 | 0.00 | 99 | 1012.0 |
| 20260507090208 | 18 | 329 | 0.0 | 0.0 | 0.00 | 0.00 | 0.00 | 99 | 1012.0 |
| 20260507085901 | 19 | 329 | 0.0 | 0.0 | 0.00 | 0.00 | 0.00 | 99 | 1012.0 |
| 20260507085248 | 20 | 329 | 0.0 | 0.0 | 0.00 | 0.00 | 0.00 | 99 | 1012.0 |
| 20260507084936 | 19 | 329 | 0.0 | 0.0 | 0.00 | 0.00 | 0.00 | 99 | 1012.0 |
| 20260507084635 | 20 | 329 | 0.0 | 0.0 | 0.00 | 0.00 | 0.00 | 99 | 1012.0 |
| 20260507084330 | 20 | 329 | 0.0 | 0.0 | 0.00 | 0.00 | 0.00 | 99 | 1012.0 |
| 20260507084024 | 20 | 329 | 0.0 | 0.0 | 0.00 | 0.00 | 0.00 | 99 | 1012.0 |
| 20260507083716 | 20 | 329 | 0.0 | 0.0 | 0.00 | 0.00 | 0.00 | 99 | 1012.0 |
| 20260507083414 | 21 | 329 | 0.0 | 0.0 | 0.00 | 0.00 | 0.00 | 99 | 1012.0 |
| 20260507082750 | 21 | 272 | 0.0 | 0.0 | 0.00 | 0.00 | 0.00 | 99 | 1012.0 |
| 20260507082444 | 19 | 272 | 0.0 | 0.0 | 0.00 | 0.00 | 0.00 | 99 | 1012.0 |
| 20260507082143 | 21 | 272 | 0.0 | 0.0 | 0.00 | 0.00 | 0.00 | 99 | 1012.0 |
| 20260507081831 | 18 | 272 | 0.0 | 0.0 | 0.00 | 0.00 | 0.00 | 99 | 1012.0 |
| 20260507081530 | 19 | 272 | 0.0 | 0.0 | 0.00 | 0.00 | 0.00 | 99 | 1012.0 |
| 20260507081223 | 20 | 272 | 0.0 | 0.0 | 0.00 | 0.00 | 0.00 | 99 | 1012.0 |
| 20260507080611 | 20 | 272 | 0.0 | 0.0 | 0.00 | 0.00 | 0.00 | 99 | 1012.0 |
| 20260507080309 | 20 | 272 | 0.0 | 0.0 | 0.00 | 0.00 | 0.00 | 99 | 1012.0 |
| 20260507080003 | 20 | 272 | 0.0 | 0.0 | 0.00 | 0.00 | 0.00 | 99 | 1012.0 |
| 20260507075656 | 21 | 272 | 0.0 | 0.0 | 0.00 | 0.00 | 0.00 | 99 | 1012.0 |
| 20260507075350 | 21 | 272 | 0.0 | 0.0 | 0.00 | 0.00 | 0.00 | 99 | 1012.0 |
| 20260507075044 | 21 | 272 | 0.0 | 0.0 | 0.00 | 0.00 | 0.00 | 99 | 1012.0 |
| 20260507074737 | 21 | 272 | 0.0 | 0.0 | 0.00 | 0.00 | 0.00 | 99 | 1012.0 |
| 20260507074431 | 18 | 272 | 0.0 | 0.0 | 0.00 | 0.00 | 0.00 | 99 | 1012.0 |
| 20260507074124 | 19 | 272 | 0.0 | 0.0 | 0.00 | 0.00 | 0.00 | 99 | 1012.0 |
| 20260507073818 | 21 | 272 | 0.0 | 0.0 | 0.00 | 0.00 | 0.00 | 99 | 1012.0 |
| 20260507073512 | 18 | 272 | 0.0 | 0.0 | 0.00 | 0.00 | 0.00 | 99 | 1012.0 |
| 20260507073205 | 19 | 272 | 0.0 | 0.0 | 0.00 | 0.00 | 0.00 | 99 | 1012.0 |
| 20260507072859 | 20 | 229 | 1.6 | 1.6 | 0.00 | 0.00 | 0.00 | 99 | 1013.0 |
| 20260507072552 | 20 | 229 | 1.6 | 1.6 | 0.00 | 0.00 | 0.00 | 99 | 1013.0 |
| 20260507072246 | 20 | 229 | 1.6 | 1.6 | 0.00 | 0.00 | 0.00 | 99 | 1013.0 |
| 20260507071944 | 20 | 229 | 1.6 | 1.6 | 0.00 | 0.00 | 0.00 | 99 | 1013.0 |
| 20260507071638 | 20 | 229 | 1.6 | 1.6 | 0.00 | 0.00 | 0.00 | 99 | 1013.0 |
| 20260507071331 | 21 | 229 | 1.6 | 1.6 | 0.00 | 0.00 | 0.00 | 99 | 1013.0 |
| 20260507071025 | 21 | 229 | 1.6 | 1.6 | 0.00 | 0.00 | 0.00 | 99 | 1013.0 |
| 20260507070718 | 21 | 229 | 1.6 | 1.6 | 0.00 | 0.00 | 0.00 | 99 | 1013.0 |
| 20260507070411 | 21 | 229 | 1.6 | 1.6 | 0.00 | 0.00 | 0.00 | 99 | 1013.0 |
| 20260507070105 | 18 | 229 | 1.6 | 1.6 | 0.00 | 0.00 | 0.00 | 99 | 1013.0 |
| 20260507065758 | 19 | 229 | 1.6 | 1.6 | 0.00 | 0.00 | 0.00 | 99 | 1013.0 |
| 20260507065457 | 19 | 229 | 1.6 | 1.6 | 0.00 | 0.00 | 0.00 | 99 | 1013.0 |
| 20260507065151 | 20 | 229 | 1.6 | 1.6 | 0.00 | 0.00 | 0.00 | 99 | 1013.0 |
| 20260507064844 | 20 | 229 | 1.6 | 1.6 | 0.00 | 0.00 | 0.00 | 99 | 1013.0 |
| 20260507064543 | 20 | 229 | 1.6 | 1.6 | 0.00 | 0.00 | 0.00 | 99 | 1013.0 |
| 20260507064236 | 20 | 229 | 1.6 | 1.6 | 0.00 | 0.00 | 0.00 | 99 | 1013.0 |
| 20260507063935 | 21 | 229 | 1.6 | 1.6 | 0.00 | 0.00 | 0.00 | 99 | 1013.0 |
| 20260507063633 | 20 | 229 | 1.6 | 1.6 | 0.00 | 0.00 | 0.00 | 99 | 1013.0 |
| 20260507063322 | 21 | 229 | 1.6 | 1.6 | 0.00 | 0.00 | 0.00 | 99 | 1013.0 |
| 20260507063020 | 21 | 206 | 0.0 | 0.0 | 0.00 | 0.00 | 0.00 | 99 | 1013.0 |
| 20260507062714 | 21 | 206 | 0.0 | 0.0 | 0.00 | 0.00 | 0.00 | 99 | 1013.0 |
| 20260507062412 | 19 | 206 | 0.0 | 0.0 | 0.00 | 0.00 | 0.00 | 99 | 1013.0 |
| 20260507062111 | 20 | 206 | 0.0 | 0.0 | 0.00 | 0.00 | 0.00 | 99 | 1013.0 |
| 20260507061810 | 20 | 206 | 0.0 | 0.0 | 0.00 | 0.00 | 0.00 | 99 | 1013.0 |
| 20260507061502 | 21 | 206 | 0.0 | 0.0 | 0.00 | 0.00 | 0.00 | 99 | 1013.0 |
| 20260507061156 | 21 | 206 | 0.0 | 0.0 | 0.00 | 0.00 | 0.00 | 99 | 1013.0 |
| 20260507060849 | 21 | 206 | 0.0 | 0.0 | 0.00 | 0.00 | 0.00 | 99 | 1013.0 |
| 20260507060236 | 21 | 206 | 0.0 | 0.0 | 0.00 | 0.00 | 0.00 | 99 | 1013.0 |
| 20260507055929 | 19 | 206 | 0.0 | 0.0 | 0.00 | 0.00 | 0.00 | 99 | 1013.0 |
| 20260507055623 | 19 | 206 | 0.0 | 0.0 | 0.00 | 0.00 | 0.00 | 99 | 1013.0 |
| 20260507055316 | 19 | 206 | 0.0 | 0.0 | 0.00 | 0.00 | 0.00 | 99 | 1013.0 |
| 20260507055004 | 20 | 170 | 1.6 | 1.6 | 0.00 | 0.00 | 0.00 | 99 | 1013.0 |
| 20260507054648 | 19 | 170 | 1.6 | 1.6 | 0.00 | 0.00 | 0.00 | 99 | 1013.0 |
| 20260507054024 | 20 | 170 | 1.6 | 1.6 | 0.00 | 0.00 | 0.00 | 99 | 1013.0 |
| 20260507053718 | 20 | 170 | 1.6 | 1.6 | 0.00 | 0.00 | 0.00 | 99 | 1013.0 |
| 20260507053056 | 21 | 145 | 1.6 | 1.6 | 0.00 | 0.00 | 0.00 | 99 | 1014.0 |
| 20260507052412 | 20 | 145 | 1.6 | 1.6 | 0.00 | 0.00 | 0.00 | 99 | 1014.0 |
| 20260507052110 | 21 | 145 | 1.6 | 1.6 | 0.00 | 0.00 | 0.00 | 99 | 1014.0 |
| 20260507051807 | 21 | 145 | 1.6 | 1.6 | 0.00 | 0.00 | 0.00 | 99 | 1014.0 |
| 20260507051500 | 21 | 145 | 1.6 | 1.6 | 0.00 | 0.00 | 0.00 | 99 | 1014.0 |
| 20260507050508 | 19 | 145 | 1.6 | 1.6 | 0.00 | 0.00 | 0.00 | 99 | 1014.0 |
| 20260507045825 | 20 | 145 | 1.6 | 1.6 | 0.00 | 0.00 | 0.00 | 99 | 1014.0 |
| 20260507044843 | 20 | 145 | 1.6 | 1.6 | 0.00 | 0.00 | 0.00 | 99 | 1014.0 |
| 20260507044534 | 20 | 145 | 1.6 | 1.6 | 0.00 | 0.00 | 0.00 | 99 | 1014.0 |
| 20260507044227 | 21 | 145 | 1.6 | 1.6 | 0.00 | 0.00 | 0.00 | 99 | 1014.0 |
| 20260507043921 | 21 | 145 | 1.6 | 1.6 | 0.00 | 0.00 | 0.00 | 99 | 1014.0 |
| 20260507043619 | 21 | 145 | 1.6 | 1.6 | 0.00 | 0.00 | 0.00 | 99 | 1014.0 |
| 20260507043312 | 21 | 145 | 1.6 | 1.6 | 0.00 | 0.00 | 0.00 | 99 | 1014.0 |
| 20260507043006 | 21 | 145 | 1.6 | 1.6 | 0.00 | 0.00 | 0.00 | 99 | 1014.0 |
| 20260507042704 | 19 | 164 | 0.0 | 0.0 | 0.00 | 0.00 | 0.00 | 99 | 1015.0 |
| 20260507042403 | 19 | 164 | 0.0 | 0.0 | 0.00 | 0.00 | 0.00 | 99 | 1015.0 |
| 20260507042102 | 20 | 164 | 0.0 | 0.0 | 0.00 | 0.00 | 0.00 | 99 | 1015.0 |
| 20260507041755 | 20 | 164 | 0.0 | 0.0 | 0.00 | 0.00 | 0.00 | 99 | 1015.0 |
| 20260507041454 | 20 | 164 | 0.0 | 0.0 | 0.00 | 0.00 | 0.00 | 99 | 1015.0 |
| 20260507041147 | 20 | 164 | 0.0 | 0.0 | 0.00 | 0.00 | 0.00 | 99 | 1015.0 |
| 20260507040840 | 20 | 164 | 0.0 | 0.0 | 0.00 | 0.00 | 0.00 | 99 | 1015.0 |
| 20260507040533 | 21 | 164 | 0.0 | 0.0 | 0.00 | 0.00 | 0.00 | 99 | 1015.0 |
| 20260507040232 | 21 | 164 | 0.0 | 0.0 | 0.00 | 0.00 | 0.00 | 99 | 1015.0 |
| 20260507035925 | 21 | 164 | 0.0 | 0.0 | 0.00 | 0.00 | 0.00 | 99 | 1015.0 |
| 20260507035619 | 22 | 164 | 0.0 | 0.0 | 0.00 | 0.00 | 0.00 | 99 | 1015.0 |
| 20260507035313 | 22 | 164 | 0.0 | 0.0 | 0.00 | 0.00 | 0.00 | 99 | 1015.0 |
| 20260507035006 | 22 | 164 | 0.0 | 0.0 | 0.00 | 0.00 | 0.00 | 99 | 1015.0 |
| 20260507034704 | 19 | 164 | 0.0 | 0.0 | 0.00 | 0.00 | 0.00 | 99 | 1015.0 |
| 20260507034358 | 19 | 164 | 0.0 | 0.0 | 0.00 | 0.00 | 0.00 | 99 | 1015.0 |
| 20260507034041 | 20 | 164 | 0.0 | 0.0 | 0.00 | 0.00 | 0.00 | 99 | 1015.0 |
| 20260507033740 | 20 | 164 | 0.0 | 0.0 | 0.00 | 0.00 | 0.00 | 99 | 1015.0 |
| 20260507033439 | 20 | 164 | 0.0 | 0.0 | 0.00 | 0.00 | 0.00 | 99 | 1015.0 |
| 20260507033137 | 21 | 132 | 1.6 | 1.6 | 0.00 | 0.00 | 0.00 | 99 | 1015.0 |
| 20260507032830 | 21 | 132 | 1.6 | 1.6 | 0.00 | 0.00 | 0.00 | 99 | 1015.0 |
| 20260507032529 | 21 | 132 | 1.6 | 1.6 | 0.00 | 0.00 | 0.00 | 99 | 1015.0 |
| 20260507032222 | 21 | 132 | 1.6 | 1.6 | 0.00 | 0.00 | 0.00 | 99 | 1015.0 |
| 20260507031921 | 22 | 132 | 1.6 | 1.6 | 0.00 | 0.00 | 0.00 | 99 | 1015.0 |
| 20260507031614 | 22 | 132 | 1.6 | 1.6 | 0.00 | 0.00 | 0.00 | 99 | 1015.0 |
| 20260507031307 | 22 | 132 | 1.6 | 1.6 | 0.00 | 0.00 | 0.00 | 99 | 1015.0 |
| 20260507031004 | 22 | 132 | 1.6 | 1.6 | 0.00 | 0.00 | 0.00 | 99 | 1015.0 |
| 20260507030702 | 22 | 132 | 1.6 | 1.6 | 0.00 | 0.00 | 0.00 | 99 | 1015.0 |
| 20260507030356 | 19 | 132 | 1.6 | 1.6 | 0.00 | 0.00 | 0.00 | 99 | 1015.0 |
| 20260507030049 | 22 | 132 | 1.6 | 1.6 | 0.00 | 0.00 | 0.00 | 99 | 1015.0 |
| 20260507025748 | 19 | 132 | 1.6 | 1.6 | 0.00 | 0.00 | 0.00 | 99 | 1015.0 |
| 20260507025441 | 20 | 132 | 1.6 | 1.6 | 0.00 | 0.00 | 0.00 | 99 | 1015.0 |
| 20260507025135 | 20 | 132 | 1.6 | 1.6 | 0.00 | 0.00 | 0.00 | 99 | 1015.0 |
| 20260507024834 | 20 | 132 | 1.6 | 1.6 | 0.00 | 0.00 | 0.00 | 99 | 1015.0 |
| 20260507024532 | 20 | 132 | 1.6 | 1.6 | 0.00 | 0.00 | 0.00 | 99 | 1015.0 |
| 20260507024231 | 21 | 132 | 1.6 | 1.6 | 0.00 | 0.00 | 0.00 | 99 | 1015.0 |
| 20260507023929 | 21 | 132 | 1.6 | 1.6 | 0.00 | 0.00 | 0.00 | 99 | 1015.0 |
| 20260507023627 | 21 | 132 | 1.6 | 1.6 | 0.00 | 0.00 | 0.00 | 99 | 1015.0 |
| 20260507023325 | 21 | 132 | 1.6 | 1.6 | 0.00 | 0.00 | 0.00 | 99 | 1015.0 |
| 20260507023012 | 22 | 132 | 1.6 | 1.6 | 0.00 | 0.00 | 0.00 | 99 | 1015.0 |